Aérodrome :
LOGIN :

S'inscrire | Disclaimer

   EN    FR    IT 

 










Légende :    VFR   VFR Marginal   IFR   IFR Intensif   IFR Très Intensif
Visi : 
Plafond : 
>= 8 km
>= 3000ft
5 à 8 km
1000 à 3000 ft
1500m à 5 km
500 à 1000 ft
800 à 1500m
200 à 500 ft
< 800m
< 200 ft
Symboles :   Orages  Brouillard  Fortes neiges  Fortes précipitations  Vent > 20 kt
SIGMETs :   Divers  Orages  Givrage  Turbulence  Onde Orograph.  Cendres Volcan.







- Altitude de l'aérodrome : 308 ft
- Code IATA : MHG


EDFM - Mannheim-City

DERNIER METAR :
  • 211320Z 14005KT 090V190 9999 FEW020 22/17 Q1012

METARs EXPIRÉS :
  • 211250Z 14006KT 100V180 9999 FEW016 21/18 Q1012
  • 211220Z 17004KT 130V220 9999 FEW006 SCT120 20/18 Q1013
  • 211150Z 18004KT 150V210 9999 -RA FEW006 SCT033 BKN110 19/19 Q1013
  • 211120Z 20004KT 160V220 9999 -RA SCT006 SCT010 BKN090 19/19 Q1013
  • 211050Z 20004KT 170V250 7000 -RA SCT008 BKN012 BKN061 19/19 Q1013

Prévision TAF périmée.
Pas de NOTAMs connus pour ce terrain.



MET'MAP, la Météo Aéronautique d'un coup d'oeil ! - Copyright ORBIFLY Décembre 2007 - Disclaimer

ORBIFLY MET'MAP TEAM :

Programmation & Développement : Alexandra Zaïnal
Conception & Développement : Baudouin d'Aumeries
Co-Programmation & Développement : Marc-Olivier Méhu
Soutien technique & logistique : Manuel Goepfert

Contact : metmap@orbifly.com




SOURCES & CREDITS :

   NOAA